Time;durP1;ratioP1;P1;durP2;ratioP2;P2;SDS_P1;SDS_P2;PMS_P1;PMS_P2;Temp;Humidity;BMP_temperature;BMP_pressure;BME280_temperature;BME280_humidity;BME280_pressure;Samples;Min_cycle;Max_cycle;Signal;HPM_P1;HPM_P2
2023/07/13 00:01:58;;;;;;;1.93;1.83;;;20.50;94.40;;;;;;4924182;29;20195;-78
2023/07/13 00:04:25;;;;;;;2.17;1.97;;;20.50;94.40;;;;;;4915421;28;20203;-78
2023/07/13 00:06:51;;;;;;;2.40;2.20;;;20.50;94.70;;;;;;4929082;28;20210;-78
2023/07/13 00:09:17;;;;;;;2.00;1.73;;;20.50;94.90;;;;;;4926898;28;20230;-86
2023/07/13 00:11:44;;;;;;;2.53;2.27;;;20.50;94.90;;;;;;4930783;28;20203;-82
2023/07/13 00:14:10;;;;;;;3.57;2.20;;;20.50;94.60;;;;;;4929647;29;20222;-81
2023/07/13 00:16:38;;;;;;;2.57;2.10;;;20.50;94.90;;;;;;4927922;28;20242;-77
2023/07/13 00:19:05;;;;;;;2.60;1.97;;;20.50;95.20;;;;;;4920885;28;20211;-79
2023/07/13 00:21:31;;;;;;;2.70;2.13;;;20.50;94.80;;;;;;4918897;28;20253;-75
2023/07/13 00:23:57;;;;;;;5.73;2.33;;;20.60;95.10;;;;;;4923198;29;20200;-81
2023/07/13 00:26:22;;;;;;;2.83;2.33;;;20.60;94.60;;;;;;4921233;28;20212;-85
2023/07/13 00:28:48;;;;;;;1.70;1.60;;;20.60;95.50;;;;;;4922835;28;20265;-77
2023/07/13 00:31:16;;;;;;;3.50;2.10;;;20.50;95.30;;;;;;4920866;28;20696;-76
2023/07/13 00:33:42;;;;;;;5.23;2.70;;;20.50;95.70;;;;;;4967843;28;20579;-75
2023/07/13 00:36:09;;;;;;;2.50;2.20;;;20.50;95.20;;;;;;4911581;28;20225;-73
2023/07/13 00:38:35;;;;;;;2.77;2.53;;;20.50;95.70;;;;;;4911635;28;20596;-77
2023/07/13 00:41:03;;;;;;;3.77;2.07;;;20.50;96.10;;;;;;4911783;29;20310;-76
2023/07/13 00:43:29;;;;;;;4.40;2.60;;;20.50;95.50;;;;;;4910059;28;20923;-77
2023/07/13 00:45:58;;;;;;;3.70;1.83;;;20.50;95.30;;;;;;4920104;28;20202;-77
2023/07/13 00:48:27;;;;;;;3.60;2.20;;;20.50;95.60;;;;;;4926614;28;20258;-78
2023/07/13 00:50:56;;;;;;;2.43;2.23;;;20.40;96.40;;;;;;4922229;28;20577;-77
2023/07/13 00:53:23;;;;;;;5.23;2.57;;;20.40;96.80;;;;;;4926844;28;20723;-76
2023/07/13 00:55:50;;;;;;;3.53;2.00;;;20.30;96.70;;;;;;4921312;28;20214;-76
2023/07/13 00:58:16;;;;;;;3.37;2.00;;;20.30;97.10;;;;;;4924742;28;20213;-75
2023/07/13 01:00:42;;;;;;;4.50;2.20;;;20.30;97.60;;;;;;4920502;29;20840;-75
2023/07/13 01:03:08;;;;;;;3.33;2.23;;;20.30;97.30;;;;;;4920076;28;20210;-76
2023/07/13 01:05:34;;;;;;;4.83;2.67;;;20.40;97.20;;;;;;4920512;29;20557;-75
2023/07/13 01:08:03;;;;;;;2.70;2.10;;;20.40;97.30;;;;;;4919654;28;20234;-76
2023/07/13 01:10:29;;;;;;;5.37;2.77;;;20.40;97.50;;;;;;4920733;29;20290;-76
2023/07/13 01:12:55;;;;;;;2.37;2.13;;;20.40;96.60;;;;;;4921621;28;20218;-75
2023/07/13 01:15:44;;;;;;;6.27;2.73;;;20.40;97.00;;;;;;4920031;29;20325;-76
2023/07/13 01:18:12;;;;;;;5.20;2.37;;;20.30;97.80;;;;;;4920325;28;20207;-75
2023/07/13 01:20:38;;;;;;;2.80;2.60;;;20.20;99.60;;;;;;4925960;28;20276;-75
2023/07/13 01:26:27;;;;;;;2.47;2.10;;;20.00;98.70;;;;;;4963162;28;20252;-79
2023/07/13 01:28:52;;;;;;;5.30;2.80;;;20.00;98.50;;;;;;4969162;28;20289;-78
2023/07/13 01:31:17;;;;;;;3.93;2.63;;;20.10;99.00;;;;;;4946042;28;20316;-82
2023/07/13 01:33:43;;;;;;;3.30;2.30;;;20.10;98.90;;;;;;4926192;29;20209;-72
2023/07/13 01:36:11;;;;;;;3.27;2.40;;;20.10;99.60;;;;;;4928915;28;20667;-73
2023/07/13 01:38:36;;;;;;;4.17;3.30;;;20.00;99.90;;;;;;4926380;29;20676;-73
2023/07/13 01:41:03;;;;;;;4.67;3.83;;;19.90;99.90;;;;;;4988719;28;20202;-73
2023/07/13 01:43:28;;;;;;;8.47;4.07;;;19.80;99.90;;;;;;4922815;28;20677;-81
2023/07/13 01:45:54;;;;;;;21.60;7.60;;;19.80;99.90;;;;;;4925072;29;20205;-73
2023/07/13 01:48:20;;;;;;;11.30;5.20;;;19.60;99.90;;;;;;4926746;28;20209;-75
2023/07/13 01:50:47;;;;;;;6.53;3.93;;;19.10;99.90;;;;;;4928075;28;20209;-72
2023/07/13 01:53:13;;;;;;;3.53;2.83;;;18.90;99.90;;;;;;4920635;29;20636;-80
2023/07/13 01:55:39;;;;;;;5.43;3.33;;;18.90;99.90;;;;;;4929191;28;20575;-81
2023/07/13 01:58:05;;;;;;;4.10;3.07;;;18.90;99.90;;;;;;4922408;29;20668;-83
2023/07/13 02:00:31;;;;;;;4.70;3.30;;;19.10;99.90;;;;;;4913891;28;20695;-83
2023/07/13 02:02:56;;;;;;;3.67;3.00;;;19.20;99.90;;;;;;4927750;28;20312;-81
2023/07/13 02:05:22;;;;;;;4.83;2.80;;;19.20;99.90;;;;;;4930154;28;20595;-83
2023/07/13 02:07:48;;;;;;;3.80;2.77;;;19.30;99.90;;;;;;4925302;29;20213;-80
2023/07/13 02:10:14;;;;;;;5.03;2.80;;;19.30;99.90;;;;;;4925683;29;20219;-74
2023/07/13 02:12:41;;;;;;;4.17;2.67;;;19.30;99.90;;;;;;4926347;29;20279;-81
2023/07/13 02:15:07;;;;;;;3.37;2.50;;;19.30;99.90;;;;;;4924891;28;20209;-81
2023/07/13 02:17:34;;;;;;;3.43;2.63;;;19.30;99.90;;;;;;4927335;28;20194;-80
2023/07/13 02:20:00;;;;;;;3.77;2.40;;;19.40;99.90;;;;;;4928675;28;20816;-80
2023/07/13 02:22:25;;;;;;;3.37;2.53;;;19.40;99.90;;;;;;4927601;28;20210;-72
2023/07/13 02:24:51;;;;;;;4.70;3.00;;;19.30;99.90;;;;;;4923306;28;20251;-77
2023/07/13 02:27:17;;;;;;;4.47;2.97;;;19.30;99.90;;;;;;4988578;28;20214;-79
2023/07/13 02:29:42;;;;;;;3.17;2.60;;;19.30;99.90;;;;;;4919952;29;20607;-77
2023/07/13 02:32:08;;;;;;;3.57;3.00;;;19.10;99.90;;;;;;4925589;29;20202;-75
2023/07/13 02:34:34;;;;;;;2.43;2.13;;;19.20;99.90;;;;;;4918650;28;20719;-78
2023/07/13 02:36:59;;;;;;;4.37;2.63;;;19.10;99.90;;;;;;4921245;28;20202;-77
2023/07/13 02:39:25;;;;;;;2.50;2.30;;;19.20;99.90;;;;;;4924954;29;20734;-77
2023/07/13 02:41:50;;;;;;;2.63;2.43;;;19.20;99.90;;;;;;4928108;28;20239;-70
2023/07/13 02:44:16;;;;;;;4.23;2.80;;;19.10;99.90;;;;;;4913482;29;20678;-71
2023/07/13 02:46:41;;;;;;;2.50;2.30;;;19.10;99.90;;;;;;4935996;28;20235;-82
2023/07/13 02:49:07;;;;;;;3.70;2.47;;;19.10;99.90;;;;;;4932696;28;20202;-74
2023/07/13 02:51:35;;;;;;;3.33;2.83;;;19.10;99.90;;;;;;4940530;29;20214;-79
2023/07/13 02:54:02;;;;;;;5.67;3.20;;;19.20;99.90;;;;;;4941839;28;20225;-79
2023/07/13 02:56:30;;;;;;;3.93;2.60;;;19.20;99.90;;;;;;4920588;28;20237;-80
2023/07/13 02:58:56;;;;;;;2.70;2.33;;;19.10;99.90;;;;;;4921731;28;20572;-80
2023/07/13 03:01:22;;;;;;;7.37;2.80;;;19.10;99.90;;;;;;4915608;28;20246;-80
2023/07/13 03:03:49;;;;;;;3.47;2.50;;;19.20;99.90;;;;;;4918109;28;20210;-79
2023/07/13 03:06:16;;;;;;;3.63;3.07;;;19.20;99.90;;;;;;4914178;28;20212;-80
2023/07/13 03:08:42;;;;;;;2.80;2.60;;;19.20;99.90;;;;;;4925983;28;20245;-80
2023/07/13 03:11:10;;;;;;;2.77;2.40;;;19.20;99.90;;;;;;4924443;28;20812;-79
2023/07/13 03:13:37;;;;;;;2.87;2.37;;;19.20;99.90;;;;;;4923293;28;20219;-74
2023/07/13 03:16:03;;;;;;;3.40;2.70;;;19.10;99.90;;;;;;4918270;29;20211;-74
2023/07/13 03:18:29;;;;;;;3.20;2.87;;;19.10;99.90;;;;;;4915949;28;20520;-74
2023/07/13 03:20:55;;;;;;;4.37;3.10;;;19.00;99.90;;;;;;4919727;28;20200;-74
2023/07/13 03:23:22;;;;;;;3.20;2.90;;;18.90;99.90;;;;;;4929357;28;20205;-75
2023/07/13 03:25:48;;;;;;;3.17;2.80;;;18.70;99.90;;;;;;4924462;28;20204;-78
2023/07/13 03:28:14;;;;;;;6.87;2.87;;;18.40;99.90;;;;;;4910064;28;20268;-79
2023/07/13 03:30:41;;;;;;;3.63;3.00;;;18.50;99.90;;;;;;4929176;28;20462;-79
2023/07/13 03:33:06;;;;;;;3.00;2.60;;;18.60;99.90;;;;;;4919647;28;20605;-80
2023/07/13 03:35:32;;;;;;;3.23;2.93;;;18.60;99.90;;;;;;4932732;28;20197;-80
2023/07/13 03:37:59;;;;;;;3.63;2.70;;;18.60;99.90;;;;;;4909457;28;20782;-78
2023/07/13 03:40:26;;;;;;;3.07;2.50;;;18.70;99.90;;;;;;4910528;28;20255;-77
2023/07/13 03:42:51;;;;;;;4.63;2.67;;;18.50;99.90;;;;;;4908897;28;20233;-78
2023/07/13 03:45:17;;;;;;;3.10;2.70;;;18.60;99.90;;;;;;4908995;29;20205;-72
2023/07/13 03:47:43;;;;;;;4.87;2.90;;;18.70;99.90;;;;;;4916992;28;20208;-72
2023/07/13 03:50:09;;;;;;;3.33;3.00;;;18.70;99.90;;;;;;4920014;28;20736;-78
2023/07/13 03:52:34;;;;;;;5.77;3.60;;;18.70;99.90;;;;;;4916244;29;20215;-79
2023/07/13 03:55:00;;;;;;;5.33;2.90;;;18.70;99.90;;;;;;4914238;29;20500;-78
2023/07/13 03:57:25;;;;;;;4.27;3.07;;;18.50;99.90;;;;;;4916351;29;20751;-79
2023/07/13 03:59:51;;;;;;;5.43;2.97;;;18.50;99.90;;;;;;4917321;28;20201;-79
2023/07/13 04:02:17;;;;;;;2.93;2.70;;;18.50;99.90;;;;;;4912515;29;20240;-76
2023/07/13 04:04:43;;;;;;;3.43;3.13;;;18.40;99.90;;;;;;4926732;28;20212;-79
2023/07/13 04:07:08;;;;;;;4.37;2.53;;;18.10;99.90;;;;;;4910695;29;20215;-79
2023/07/13 04:09:34;;;;;;;3.57;3.10;;;18.20;99.90;;;;;;4920412;29;20224;-79
2023/07/13 04:12:00;;;;;;;5.07;3.23;;;18.10;99.90;;;;;;4913867;28;20241;-79
2023/07/13 04:14:25;;;;;;;8.07;3.20;;;18.20;99.90;;;;;;4917615;29;20252;-74
2023/07/13 04:16:51;;;;;;;7.40;3.40;;;18.20;99.90;;;;;;4907286;29;20239;-74
2023/07/13 04:19:17;;;;;;;4.60;3.50;;;18.30;99.90;;;;;;4916843;29;20205;-74
2023/07/13 04:21:42;;;;;;;4.57;3.13;;;18.40;99.90;;;;;;4915764;28;20236;-73
2023/07/13 04:24:08;;;;;;;6.67;3.67;;;18.50;99.90;;;;;;4919549;28;20212;-74
2023/07/13 04:26:35;;;;;;;3.43;3.13;;;18.70;99.90;;;;;;4925131;28;20198;-73
2023/07/13 04:29:03;;;;;;;4.10;3.60;;;18.70;99.90;;;;;;4910926;29;20224;-73
2023/07/13 04:31:29;;;;;;;4.30;3.90;;;18.70;99.90;;;;;;4912780;28;20262;-73
2023/07/13 04:33:55;;;;;;;3.70;3.40;;;18.80;99.90;;;;;;4911711;28;20597;-78
2023/07/13 04:36:20;;;;;;;4.87;3.30;;;18.70;99.90;;;;;;4913036;29;20831;-78
2023/07/13 04:38:46;;;;;;;6.57;3.07;;;18.70;99.90;;;;;;4923082;28;20200;-78
2023/07/13 04:41:13;;;;;;;5.73;3.80;;;18.60;99.90;;;;;;4924194;28;20212;-77
2023/07/13 04:43:38;;;;;;;4.47;4.07;;;18.60;99.90;;;;;;4919556;28;20210;-78
2023/07/13 04:46:11;;;;;;;3.83;3.53;;;18.30;99.90;;;;;;4929785;29;20199;-78
2023/07/13 04:48:37;;;;;;;5.13;4.23;;;18.20;99.90;;;;;;4924449;28;20837;-78
2023/07/13 04:51:03;;;;;;;3.87;3.57;;;18.20;99.90;;;;;;4922663;28;20225;-78
2023/07/13 04:53:29;;;;;;;4.67;3.87;;;18.20;99.90;;;;;;4926676;28;20227;-78
2023/07/13 04:55:55;;;;;;;4.80;3.70;;;18.10;99.90;;;;;;4922068;28;20204;-78
2023/07/13 04:58:22;;;;;;;4.60;4.03;;;18.20;99.90;;;;;;4922168;28;20753;-79
2023/07/13 05:00:47;;;;;;;5.03;4.07;;;18.40;99.90;;;;;;4914942;28;20809;-78
2023/07/13 05:03:13;;;;;;;5.07;4.00;;;18.30;99.90;;;;;;4922394;29;20220;-79
2023/07/13 05:05:39;;;;;;;8.00;4.10;;;18.40;99.90;;;;;;4920477;28;20207;-78
2023/07/13 05:08:04;;;;;;;7.40;4.27;;;18.30;99.90;;;;;;4914881;29;20317;-78
2023/07/13 05:10:30;;;;;;;7.80;4.07;;;18.10;99.90;;;;;;4910211;28;20217;-78
2023/07/13 05:12:55;;;;;;;6.90;4.13;;;18.10;99.90;;;;;;4927770;28;20273;-77
2023/07/13 05:15:22;;;;;;;7.30;4.20;;;18.30;99.90;;;;;;4919450;28;20236;-78
2023/07/13 05:17:49;;;;;;;7.90;4.10;;;18.60;99.90;;;;;;4914333;29;20208;-78
2023/07/13 05:20:16;;;;;;;7.57;4.63;;;18.50;99.90;;;;;;4921532;28;20205;-79
2023/07/13 05:22:42;;;;;;;3.93;3.50;;;18.60;99.90;;;;;;4993232;28;20583;-78
2023/07/13 05:25:08;;;;;;;9.07;4.60;;;18.50;99.90;;;;;;4910793;28;20240;-74
2023/07/13 05:27:36;;;;;;;4.33;3.43;;;18.40;99.90;;;;;;4923883;28;20205;-74
2023/07/13 05:30:03;;;;;;;6.53;3.40;;;18.40;99.90;;;;;;4923621;29;20207;-75
2023/07/13 05:32:29;;;;;;;8.30;3.90;;;18.50;99.90;;;;;;4917216;29;20202;-73
2023/07/13 05:34:55;;;;;;;3.77;3.37;;;18.60;99.90;;;;;;4920602;28;20198;-74
2023/07/13 05:37:20;;;;;;;4.13;3.73;;;18.70;99.90;;;;;;4919928;29;20201;-75
2023/07/13 05:39:46;;;;;;;9.17;4.53;;;19.00;99.90;;;;;;4926977;28;20289;-75
2023/07/13 05:42:11;;;;;;;6.00;4.33;;;19.10;99.90;;;;;;4925210;29;20289;-75
2023/07/13 05:44:37;;;;;;;5.70;4.43;;;19.30;99.90;;;;;;4919950;28;20336;-76
2023/07/13 05:47:02;;;;;;;4.47;3.77;;;19.30;99.90;;;;;;4919515;29;20200;-74
2023/07/13 05:49:30;;;;;;;5.83;3.60;;;19.30;99.90;;;;;;4919432;28;20216;-74
2023/07/13 05:51:56;;;;;;;5.90;3.87;;;19.30;99.90;;;;;;4926898;28;20201;-76
2023/07/13 05:54:21;;;;;;;7.27;4.10;;;19.30;99.90;;;;;;4921784;28;20760;-76
2023/07/13 05:56:47;;;;;;;4.90;3.57;;;19.30;99.90;;;;;;4921809;28;20228;-77
2023/07/13 05:59:12;;;;;;;6.00;4.20;;;19.30;99.90;;;;;;4919523;28;20253;-70
2023/07/13 06:01:38;;;;;;;9.07;4.87;;;19.40;99.90;;;;;;4916362;29;20210;-70
2023/07/13 06:04:03;;;;;;;5.00;3.33;;;19.60;99.90;;;;;;4912463;28;20348;-71
2023/07/13 06:06:29;;;;;;;5.13;3.23;;;19.70;99.90;;;;;;4919156;28;20972;-74
2023/07/13 06:08:54;;;;;;;7.17;2.80;;;19.70;99.90;;;;;;4922325;29;20744;-70
2023/07/13 06:11:23;;;;;;;6.17;2.90;;;19.90;99.90;;;;;;4921787;29;20210;-78
2023/07/13 06:13:49;;;;;;;6.97;2.83;;;19.90;99.90;;;;;;4923866;28;20234;-79
2023/07/13 06:16:15;;;;;;;6.77;3.57;;;20.00;99.90;;;;;;4920627;28;20197;-71
2023/07/13 06:18:41;;;;;;;5.43;3.00;;;20.00;99.90;;;;;;4918448;28;20210;-67
2023/07/13 06:21:12;;;;;;;8.03;3.10;;;19.90;99.90;;;;;;4918802;28;20260;-72
2023/07/13 06:23:38;;;;;;;7.03;3.63;;;19.80;99.90;;;;;;4922175;28;20214;-72
2023/07/13 06:26:05;;;;;;;4.63;3.10;;;19.90;99.90;;;;;;4919830;28;20551;-71
2023/07/13 06:28:31;;;;;;;3.07;2.53;;;19.80;99.90;;;;;;4916587;28;20700;-70
2023/07/13 06:30:58;;;;;;;5.23;2.50;;;19.80;99.90;;;;;;4981353;28;20595;-72
2023/07/13 06:33:23;;;;;;;3.07;2.77;;;19.90;99.90;;;;;;4917723;29;20703;-73
2023/07/13 06:35:49;;;;;;;4.70;2.80;;;20.00;99.90;;;;;;4921836;29;20249;-80
2023/07/13 06:38:14;;;;;;;4.67;2.60;;;20.00;99.90;;;;;;4922088;29;20205;-78
2023/07/13 06:40:40;;;;;;;4.37;2.30;;;20.10;99.90;;;;;;4926291;29;20692;-70
2023/07/13 06:43:06;;;;;;;5.07;2.23;;;20.30;99.90;;;;;;4924850;29;20264;-71
2023/07/13 06:45:40;;;;;;;3.97;2.60;;;20.40;99.90;;;;;;4921700;28;20238;-72
2023/07/13 06:48:06;;;;;;;4.40;2.40;;;20.40;99.90;;;;;;4915730;28;20761;-68
2023/07/13 06:50:31;;;;;;;4.73;2.20;;;20.60;99.90;;;;;;4920657;28;20534;-69
2023/07/13 06:52:56;;;;;;;5.20;2.40;;;20.60;99.90;;;;;;4930942;29;20216;-77
2023/07/13 06:55:22;;;;;;;2.43;2.00;;;20.70;99.90;;;;;;4921891;28;20206;-76
2023/07/13 06:57:48;;;;;;;6.53;2.97;;;20.50;99.90;;;;;;4926353;28;20460;-77
2023/07/13 07:00:14;;;;;;;3.70;2.50;;;20.50;99.90;;;;;;4921581;28;20599;-77
2023/07/13 07:02:39;;;;;;;6.97;2.47;;;20.60;99.90;;;;;;4917606;28;20285;-67
2023/07/13 07:05:05;;;;;;;4.83;2.17;;;20.80;99.90;;;;;;4928530;29;20210;-70
2023/07/13 07:07:31;;;;;;;4.73;2.10;;;20.90;99.90;;;;;;4984395;28;20261;-71
2023/07/13 07:09:56;;;;;;;6.00;2.67;;;21.00;99.90;;;;;;4927394;28;20727;-69
2023/07/13 07:12:22;;;;;;;3.60;2.33;;;20.90;99.90;;;;;;4923923;29;20205;-65
2023/07/13 07:14:47;;;;;;;4.93;2.30;;;21.10;99.90;;;;;;4923772;29;20217;-72
2023/07/13 07:17:13;;;;;;;5.93;2.40;;;21.00;99.90;;;;;;4920454;29;20205;-70
2023/07/13 07:19:38;;;;;;;3.07;2.00;;;21.10;99.90;;;;;;4920131;28;20603;-72
2023/07/13 07:22:04;;;;;;;6.83;2.27;;;21.20;99.90;;;;;;4923549;29;20217;-69
2023/07/13 07:24:30;;;;;;;2.63;1.87;;;21.20;99.90;;;;;;4917950;28;20309;-71
2023/07/13 07:26:55;;;;;;;3.53;2.10;;;21.40;99.90;;;;;;4919849;29;20560;-72
2023/07/13 07:29:22;;;;;;;3.33;1.93;;;21.50;99.90;;;;;;4921300;28;20203;-68
2023/07/13 07:31:47;;;;;;;2.97;1.67;;;21.30;99.90;;;;;;4913753;29;20748;-68
2023/07/13 07:34:13;;;;;;;4.47;1.50;;;21.10;99.90;;;;;;4926566;28;20235;-71
2023/07/13 07:36:38;;;;;;;2.37;2.17;;;21.10;99.90;;;;;;4939117;28;21123;-69
2023/07/13 07:39:04;;;;;;;2.43;1.60;;;21.00;99.50;;;;;;4923984;29;20208;-72
2023/07/13 07:41:30;;;;;;;2.70;1.50;;;21.00;99.80;;;;;;4921054;28;20574;-75
2023/07/13 07:43:55;;;;;;;2.87;1.97;;;21.10;99.60;;;;;;4913755;28;20210;-75
2023/07/13 07:46:21;;;;;;;4.70;1.70;;;21.20;99.90;;;;;;4925633;28;20210;-75
2023/07/13 07:48:46;;;;;;;4.97;1.93;;;21.10;99.70;;;;;;4918281;29;20195;-78
2023/07/13 07:51:12;;;;;;;10.97;1.87;;;21.10;99.30;;;;;;4916094;28;20654;-77
2023/07/13 07:53:37;;;;;;;2.73;1.90;;;21.20;99.00;;;;;;4915338;28;20214;-77
2023/07/13 07:56:03;;;;;;;5.90;2.27;;;21.20;99.30;;;;;;4920071;28;20211;-71
2023/07/13 07:58:29;;;;;;;2.70;1.83;;;21.20;99.60;;;;;;4916157;28;20206;-72
2023/07/13 08:01:01;;;;;;;2.50;1.97;;;21.30;99.10;;;;;;4918269;28;20187;-70
2023/07/13 08:03:26;;;;;;;2.90;1.47;;;21.40;99.00;;;;;;4913725;28;20272;-76
2023/07/13 08:05:53;;;;;;;2.70;1.70;;;21.60;99.00;;;;;;4916144;28;20195;-75
2023/07/13 08:08:19;;;;;;;1.80;1.70;;;21.80;98.60;;;;;;4916906;28;20250;-76
2023/07/13 08:10:44;;;;;;;3.13;1.90;;;21.70;98.40;;;;;;4915761;28;20207;-74
2023/07/13 08:13:10;;;;;;;2.73;1.80;;;21.70;98.70;;;;;;4918350;29;20211;-73
2023/07/13 08:15:37;;;;;;;4.37;2.17;;;21.80;98.40;;;;;;4920879;28;20195;-75
2023/07/13 08:18:02;;;;;;;3.50;2.00;;;21.90;98.40;;;;;;4916122;28;20585;-74
2023/07/13 08:20:28;;;;;;;2.17;1.97;;;21.90;98.70;;;;;;4923197;29;20233;-74
2023/07/13 08:22:53;;;;;;;2.93;1.70;;;22.10;98.50;;;;;;4918933;28;20203;-71
2023/07/13 08:25:20;;;;;;;4.33;1.83;;;21.90;98.40;;;;;;4931829;29;20700;-68
2023/07/13 08:27:45;;;;;;;1.67;1.43;;;21.80;98.90;;;;;;4919730;29;20264;-67
2023/07/13 08:30:11;;;;;;;1.48;1.30;;;22.10;96.80;;;;;;4927560;28;20215;-68
2023/07/13 08:32:37;;;;;;;3.30;1.57;;;22.20;96.00;;;;;;4935238;28;20730;-68
2023/07/13 08:35:04;;;;;;;3.30;1.50;;;22.20;96.60;;;;;;4929724;28;20210;-70
2023/07/13 08:37:29;;;;;;;1.17;1.07;;;22.00;96.00;;;;;;4988921;28;20681;-69
2023/07/13 08:39:55;;;;;;;3.63;1.20;;;22.20;95.80;;;;;;4921652;28;20195;-72
2023/07/13 08:42:41;;;;;;;1.50;1.17;;;22.20;95.40;;;;;;4924833;28;20307;-69
2023/07/13 08:45:16;;;;;;;1.37;1.17;;;22.10;95.20;;;;;;4926174;29;20264;-75
2023/07/13 08:47:48;;;;;;;2.47;1.67;;;22.20;94.80;;;;;;4927098;28;20217;-75
2023/07/13 08:50:18;;;;;;;1.97;1.30;;;22.10;95.10;;;;;;4923736;28;20199;-69
2023/07/13 08:52:44;;;;;;;2.03;1.43;;;22.10;95.00;;;;;;4929605;28;20520;-68
2023/07/13 08:55:24;;;;;;;2.90;1.30;;;22.10;94.70;;;;;;4924252;28;20218;-69
2023/07/13 08:57:56;;;;;;;4.07;1.33;;;22.20;94.90;;;;;;4928387;28;20200;-75
2023/07/13 09:00:24;;;;;;;1.80;1.43;;;22.20;94.50;;;;;;4926296;28;20344;-72
2023/07/13 09:02:57;;;;;;;1.03;0.90;;;22.30;94.80;;;;;;4919478;28;20563;-69
2023/07/13 09:05:28;;;;;;;3.50;1.77;;;22.20;94.80;;;;;;4928097;28;20211;-68
2023/07/13 09:08:22;;;;;;;2.40;1.20;;;22.40;94.10;;;;;;4916085;28;20248;-74
2023/07/13 09:10:59;;;;;;;2.25;1.60;;;22.40;94.10;;;;;;4928885;28;20199;-65
2023/07/13 09:13:34;;;;;;;1.40;1.30;;;22.10;94.40;;;;;;4931522;28;20236;-68
2023/07/13 09:16:00;;;;;;;3.33;2.27;;;22.20;95.40;;;;;;4925475;28;20582;-71
2023/07/13 09:18:49;;;;;;;2.17;1.40;;;22.30;95.10;;;;;;4916013;28;20257;-74
2023/07/13 09:21:20;;;;;;;5.38;1.60;;;22.50;95.20;;;;;;4927472;28;20203;-82
2023/07/13 09:23:47;;;;;;;2.58;1.63;;;22.60;94.70;;;;;;4925062;28;20246;-76
2023/07/13 09:26:21;;;;;;;1.80;1.47;;;22.70;93.40;;;;;;4984077;28;20643;-71
2023/07/13 09:29:09;;;;;;;3.97;1.55;;;22.70;94.30;;;;;;4928454;28;20202;-72
2023/07/13 09:31:42;;;;;;;3.55;1.40;;;22.70;93.20;;;;;;4924621;28;20758;-74
2023/07/13 09:34:11;;;;;;;3.55;1.88;;;22.50;93.40;;;;;;4930159;28;20738;-75
2023/07/13 09:36:37;;;;;;;4.10;1.70;;;22.50;93.90;;;;;;4922289;28;20326;-76
2023/07/13 09:39:21;;;;;;;2.97;1.90;;;22.70;92.80;;;;;;4926672;29;20291;-75
2023/07/13 09:41:57;;;;;;;15.18;5.25;;;23.00;93.00;;;;;;4926218;28;20201;-74
2023/07/13 09:44:50;;;;;;;3.08;2.65;;;22.10;99.90;;;;;;4920315;28;20676;-75
2023/07/13 09:47:27;;;;;;;2.60;2.27;;;20.00;99.90;;;;;;4925304;29;20249;-74
2023/07/13 09:49:58;;;;;;;5.37;3.00;;;19.60;99.90;;;;;;4925974;28;20229;-75
2023/07/13 09:52:24;;;;;;;3.30;3.00;;;19.50;99.90;;;;;;4929033;29;20565;-72
2023/07/13 09:54:54;;;;;;;5.17;3.27;;;19.10;99.90;;;;;;4920048;28;20225;-69
2023/07/13 09:57:23;;;;;;;3.03;2.57;;;19.10;99.90;;;;;;4916008;28;20201;-76
2023/07/13 09:59:51;;;;;;;4.70;2.83;;;19.20;99.90;;;;;;4924089;28;20215;-74
2023/07/13 10:02:34;;;;;;;5.00;3.10;;;18.80;99.90;;;;;;4918237;28;20208;-72
2023/07/13 10:05:11;;;;;;;5.10;4.07;;;18.80;99.90;;;;;;4914700;28;20566;-72
2023/07/13 10:07:44;;;;;;;3.13;2.93;;;18.50;99.90;;;;;;4919731;28;20209;-70
2023/07/13 10:10:22;;;;;;;4.67;3.20;;;19.30;99.90;;;;;;4925389;28;20577;-70
2023/07/13 10:12:49;;;;;;;6.77;3.50;;;19.40;99.90;;;;;;4922090;28;20232;-72
2023/07/13 10:15:18;;;;;;;8.07;4.17;;;20.20;99.90;;;;;;4917909;29;20293;-71
2023/07/13 10:17:45;;;;;;;2.67;2.47;;;20.20;99.90;;;;;;4918524;28;20203;-69
2023/07/13 10:20:12;;;;;;;3.27;2.83;;;19.10;99.90;;;;;;4920683;28;20210;-70
2023/07/13 10:22:54;;;;;;;3.73;3.20;;;19.00;99.90;;;;;;4918556;28;20284;-71
2023/07/13 10:25:23;;;;;;;4.47;2.43;;;19.00;99.90;;;;;;4916970;28;20206;-73
2023/07/13 10:28:01;;;;;;;6.10;2.60;;;19.30;99.90;;;;;;4916818;28;20208;-73
2023/07/13 10:30:33;;;;;;;5.20;2.87;;;19.60;99.90;;;;;;4922870;28;20353;-72
2023/07/13 10:33:03;;;;;;;3.50;3.20;;;19.60;99.90;;;;;;4923667;28;20211;-73
2023/07/13 10:35:30;;;;;;;3.77;2.47;;;20.20;99.90;;;;;;4917121;28;20201;-80
2023/07/13 10:38:06;;;;;;;3.83;2.60;;;20.30;99.90;;;;;;4925892;28;20554;-71
2023/07/13 10:40:56;;;;;;;3.37;2.60;;;20.40;99.90;;;;;;4919358;29;20646;-70
2023/07/13 10:43:36;;;;;;;7.57;2.43;;;21.10;99.50;;;;;;4920895;28;20553;-74
2023/07/13 10:46:05;;;;;;;3.53;2.77;;;21.70;97.00;;;;;;4913358;28;20276;-74
2023/07/13 10:48:34;;;;;;;3.00;2.67;;;21.80;97.20;;;;;;4919088;28;20289;-71
2023/07/13 10:51:01;;;;;;;2.50;2.33;;;21.70;97.60;;;;;;4914373;28;20451;-70
2023/07/13 10:53:39;;;;;;;5.93;2.67;;;21.80;96.30;;;;;;4918166;28;20241;-70
2023/07/13 10:56:29;;;;;;;3.67;2.67;;;22.20;95.00;;;;;;4924782;28;20202;-70
2023/07/13 10:59:17;;;;;;;4.23;2.93;;;22.30;93.80;;;;;;4918868;28;20246;-76
2023/07/13 11:01:56;;;;;;;2.67;2.47;;;22.50;93.90;;;;;;4918231;28;20222;-71
2023/07/13 11:04:23;;;;;;;4.37;2.80;;;22.70;92.30;;;;;;4916555;28;20207;-71
2023/07/13 11:06:52;;;;;;;4.15;2.35;;;22.90;92.40;;;;;;4916695;28;20203;-70
2023/07/13 11:09:32;;;;;;;4.30;3.33;;;23.10;92.40;;;;;;4915821;28;20262;-73
2023/07/13 11:12:00;;;;;;;3.13;2.70;;;23.30;89.90;;;;;;4918001;28;20601;-71
2023/07/13 11:14:38;;;;;;;5.13;2.90;;;23.30;88.90;;;;;;4917732;28;20689;-70
2023/07/13 11:17:36;;;;;;;3.53;2.90;;;23.60;89.90;;;;;;4916195;28;20673;-69
2023/07/13 11:20:11;;;;;;;4.07;3.08;;;23.70;90.50;;;;;;4914966;29;20207;-68
2023/07/13 11:22:48;;;;;;;4.22;2.25;;;23.90;87.30;;;;;;4914553;29;20566;-79
2023/07/13 11:25:20;;;;;;;3.17;2.28;;;23.70;85.30;;;;;;4922568;28;20207;-79
2023/07/13 11:27:51;;;;;;;3.47;2.00;;;24.00;84.20;;;;;;4919255;29;20206;-79
2023/07/13 11:30:35;;;;;;;2.53;2.05;;;24.10;82.10;;;;;;4921227;28;20244;-79
2023/07/13 11:33:06;;;;;;;2.53;2.30;;;24.20;81.10;;;;;;4923295;28;20981;-80
2023/07/13 11:35:36;;;;;;;1.45;1.35;;;24.50;80.50;;;;;;4919431;29;20201;-75
2023/07/13 11:38:08;;;;;;;2.83;2.10;;;24.80;80.80;;;;;;4922730;28;20620;-70
2023/07/13 11:40:34;;;;;;;2.03;1.80;;;25.20;78.20;;;;;;4916299;28;20205;-70
2023/07/13 11:43:01;;;;;;;2.38;2.17;;;24.80;76.40;;;;;;4917234;28;20296;-70
2023/07/13 11:45:28;;;;;;;2.78;1.80;;;25.40;73.00;;;;;;4918371;29;20204;-73
2023/07/13 11:47:54;;;;;;;3.80;2.20;;;25.10;74.20;;;;;;4913761;28;20204;-70
2023/07/13 11:50:23;;;;;;;2.00;1.85;;;25.20;72.90;;;;;;4916671;28;20288;-70
2023/07/13 11:52:53;;;;;;;3.58;2.15;;;25.30;73.50;;;;;;4929331;28;20295;-69
2023/07/13 11:55:25;;;;;;;2.45;2.25;;;25.00;74.90;;;;;;4920334;28;20249;-70
2023/07/13 11:57:59;;;;;;;5.18;2.20;;;24.60;74.00;;;;;;4918042;28;20198;-74
2023/07/13 12:00:33;;;;;;;5.53;2.40;;;24.30;76.40;;;;;;4918878;28;20253;-75
2023/07/13 12:03:02;;;;;;;4.60;2.90;;;24.20;75.70;;;;;;4923436;29;20200;-73
2023/07/13 12:05:27;;;;;;;3.17;2.20;;;24.90;74.80;;;;;;4925743;28;20539;-68
2023/07/13 12:07:54;;;;;;;3.60;2.38;;;25.20;73.30;;;;;;4926212;29;20226;-70
2023/07/13 12:10:28;;;;;;;3.88;2.30;;;25.20;71.90;;;;;;4929525;29;20193;-69
2023/07/13 12:12:57;;;;;;;3.50;2.42;;;25.00;74.40;;;;;;4921600;28;20701;-68
2023/07/13 12:15:29;;;;;;;3.88;2.75;;;24.90;76.00;;;;;;4919117;28;20204;-67
2023/07/13 12:17:56;;;;;;;2.67;1.95;;;25.20;74.80;;;;;;4919550;28;20211;-68
2023/07/13 12:20:38;;;;;;;7.68;2.28;;;25.80;72.40;;;;;;4920734;28;20202;-66
2023/07/13 12:23:10;;;;;;;2.80;2.38;;;26.10;72.20;;;;;;4921468;28;20225;-76
2023/07/13 12:25:36;;;;;;;3.92;1.88;;;26.00;69.80;;;;;;4925154;28;20208;-76
2023/07/13 12:28:21;;;;;;;3.20;2.00;;;25.60;67.90;;;;;;4936444;28;20305;-76
2023/07/13 12:30:49;;;;;;;3.63;1.70;;;26.20;67.90;;;;;;4933591;29;20206;-76
2023/07/13 12:33:16;;;;;;;3.40;1.80;;;25.80;68.10;;;;;;4930048;28;20600;-75
2023/07/13 12:35:47;;;;;;;1.85;1.70;;;26.50;64.40;;;;;;4927520;28;20202;-76
2023/07/13 12:38:13;;;;;;;2.58;1.70;;;26.40;65.70;;;;;;4926876;29;20767;-75
2023/07/13 12:40:40;;;;;;;3.47;1.92;;;26.60;66.40;;;;;;4919183;29;20290;-66
2023/07/13 12:43:14;;;;;;;4.75;2.05;;;26.20;67.20;;;;;;4990963;28;20203;-67
2023/07/13 12:45:58;;;;;;;4.38;1.95;;;26.40;65.40;;;;;;4924387;28;20216;-68
2023/07/13 12:48:25;;;;;;;3.97;1.40;;;25.90;61.60;;;;;;4919597;28;20827;-76
2023/07/13 12:50:50;;;;;;;1.77;1.33;;;25.10;63.80;;;;;;4924398;28;20211;-71
2023/07/13 12:53:20;;;;;;;5.30;2.20;;;25.10;65.00;;;;;;4919060;28;20585;-69
2023/07/13 12:55:53;;;;;;;1.73;1.60;;;25.00;65.20;;;;;;4922283;28;20673;-70